createdAt,value
2017-06-04T00:00:23.098Z,0
2017-06-04T00:01:35.323Z,0
2017-06-04T00:02:47.266Z,0
2017-06-04T00:03:59.810Z,0
2017-06-04T00:05:12.066Z,0
2017-06-04T00:06:24.608Z,0
2017-06-04T00:07:37.457Z,0
2017-06-04T00:08:49.096Z,0
2017-06-04T00:10:01.341Z,0
2017-06-04T00:11:13.858Z,0
2017-06-04T00:12:26.386Z,0
2017-06-04T00:13:38.608Z,0
2017-06-04T00:14:50.875Z,0
2017-06-04T00:16:03.397Z,0
2017-06-04T00:17:15.622Z,0
2017-06-04T00:18:28.485Z,0
2017-06-04T00:19:40.762Z,0
2017-06-04T00:20:53.322Z,0
2017-06-04T00:22:05.575Z,0
2017-06-04T00:23:18.113Z,0
2017-06-04T00:24:30.668Z,0
2017-06-04T00:25:42.913Z,0
2017-06-04T00:26:55.134Z,0
2017-06-04T00:28:07.379Z,0
2017-06-04T00:29:19.304Z,0
2017-06-04T00:30:31.846Z,0
2017-06-04T00:31:44.393Z,0
2017-06-04T00:32:56.638Z,0
2017-06-04T00:34:09.140Z,0
2017-06-04T00:35:21.681Z,0
2017-06-04T00:36:33.919Z,0
2017-06-04T00:37:46.453Z,0
2017-06-04T00:38:59.019Z,0
2017-06-04T00:40:11.243Z,0
2017-06-04T00:41:23.489Z,0
2017-06-04T00:42:35.414Z,0
2017-06-04T00:43:47.652Z,0
2017-06-04T00:45:00.194Z,0
2017-06-04T00:46:12.431Z,0
2017-06-04T00:47:24.365Z,0
2017-06-04T00:48:36.907Z,0
2017-06-04T00:49:49.423Z,0
2017-06-04T00:51:01.956Z,0
2017-06-04T00:52:14.219Z,0
2017-06-04T00:53:26.471Z,0
2017-06-04T00:54:38.115Z,0
2017-06-04T00:55:50.336Z,0
2017-06-04T00:57:02.262Z,0
2017-06-04T00:58:14.795Z,0
2017-06-04T00:59:27.040Z,0
2017-06-04T01:00:39.277Z,0
2017-06-04T01:01:51.833Z,0
2017-06-04T01:03:04.379Z,0
2017-06-04T01:04:16.604Z,0
2017-06-04T01:05:28.521Z,0
2017-06-04T01:06:40.442Z,0
2017-06-04T01:07:52.699Z,0
2017-06-04T01:09:05.242Z,0
2017-06-04T01:10:17.468Z,0
2017-06-04T01:11:29.986Z,0
2017-06-04T01:12:42.532Z,0
2017-06-04T01:13:55.070Z,0
2017-06-04T01:15:07.021Z,0
2017-06-04T01:16:19.271Z,0
2017-06-04T01:17:31.518Z,0
2017-06-04T01:18:44.033Z,0
2017-06-04T01:19:55.962Z,0
2017-06-04T01:21:08.476Z,0
2017-06-04T01:22:21.014Z,0
2017-06-04T01:23:33.859Z,0
2017-06-04T01:24:46.396Z,0
2017-06-04T01:25:58.631Z,0
2017-06-04T01:27:11.155Z,0
2017-06-04T01:28:23.376Z,0
2017-06-04T01:29:35.597Z,0
2017-06-04T01:30:48.135Z,0
2017-06-04T01:32:00.682Z,0
2017-06-04T01:33:13.212Z,0
2017-06-04T01:34:25.757Z,0
2017-06-04T01:35:37.980Z,0
2017-06-04T01:36:50.502Z,0
2017-06-04T01:38:03.064Z,0
2017-06-04T01:39:15.290Z,0
2017-06-04T01:40:27.853Z,0
2017-06-04T01:41:40.406Z,0
2017-06-04T01:42:52.931Z,0
2017-06-04T01:44:05.449Z,0
2017-06-04T01:45:17.647Z,0
2017-06-04T01:46:29.611Z,0
2017-06-04T01:47:41.840Z,0
2017-06-04T01:48:53.781Z,0
2017-06-04T01:50:06.298Z,0
2017-06-04T01:51:18.248Z,0
2017-06-04T01:52:30.175Z,0
2017-06-04T01:53:42.736Z,0
2017-06-04T01:54:55.261Z,0
2017-06-04T01:56:07.486Z,0
2017-06-04T01:57:19.405Z,0
2017-06-04T01:58:31.631Z,0
2017-06-04T01:59:43.873Z,0
2017-06-04T02:00:56.416Z,0
2017-06-04T02:02:08.987Z,0
2017-06-04T02:03:21.532Z,0
2017-06-04T02:04:33.747Z,0
2017-06-04T02:05:45.970Z,0
2017-06-04T02:06:58.495Z,0
2017-06-04T02:08:11.019Z,4
2017-06-04T02:09:23.547Z,4
2017-06-04T02:10:35.837Z,4
2017-06-04T02:11:48.379Z,4
2017-06-04T02:13:00.896Z,4
2017-06-04T02:14:13.424Z,4
2017-06-04T02:15:25.647Z,4
2017-06-04T02:16:37.872Z,8
2017-06-04T02:17:50.427Z,8
2017-06-04T02:19:02.932Z,4
2017-06-04T02:20:15.476Z,4
2017-06-04T02:21:27.701Z,8
2017-06-04T02:22:39.938Z,8
2017-06-04T02:23:52.163Z,8
2017-06-04T02:25:04.384Z,12
2017-06-04T02:26:16.934Z,12
2017-06-04T02:27:29.194Z,16
2017-06-04T02:28:41.742Z,20
2017-06-04T02:29:53.967Z,24
2017-06-04T02:31:06.208Z,32
2017-06-04T02:32:18.756Z,36
2017-06-04T02:33:30.980Z,44
2017-06-04T02:34:43.223Z,48
2017-06-04T02:35:55.723Z,56
2017-06-04T02:37:07.944Z,72
2017-06-04T02:38:20.493Z,76
2017-06-04T02:39:33.014Z,88
2017-06-04T02:40:45.260Z,96
2017-06-04T02:41:57.505Z,104
2017-06-04T02:43:09.748Z,112
2017-06-04T02:44:22.248Z,124
2017-06-04T02:45:34.787Z,128
2017-06-04T02:46:47.039Z,140
2017-06-04T02:47:59.560Z,148
2017-06-04T02:49:12.119Z,160
2017-06-04T02:50:24.353Z,172
2017-06-04T02:51:36.886Z,180
2017-06-04T02:52:49.140Z,196
2017-06-04T02:54:01.364Z,204
2017-06-04T02:55:13.589Z,212
2017-06-04T02:56:26.131Z,220
2017-06-04T02:57:38.049Z,240
2017-06-04T02:58:50.574Z,268
2017-06-04T03:00:02.791Z,292
2017-06-04T03:01:15.316Z,316
2017-06-04T03:02:27.534Z,344
2017-06-04T03:03:39.756Z,376
2017-06-04T03:04:52.291Z,416
2017-06-04T03:06:04.538Z,464
2017-06-04T03:07:17.068Z,508
2017-06-04T03:08:29.608Z,544
2017-06-04T03:09:41.860Z,576
2017-06-04T03:10:54.379Z,612
2017-06-04T03:12:06.876Z,644
2017-06-04T03:13:19.424Z,676
2017-06-04T03:14:31.974Z,696
2017-06-04T03:15:44.522Z,696
2017-06-04T03:16:57.039Z,676
2017-06-04T03:18:09.008Z,656
2017-06-04T03:19:21.542Z,640
2017-06-04T03:20:34.097Z,636
2017-06-04T03:21:46.335Z,656
2017-06-04T03:22:58.845Z,680
2017-06-04T03:24:10.787Z,716
2017-06-04T03:25:23.355Z,760
2017-06-04T03:26:35.854Z,816
2017-06-04T03:27:48.072Z,884
2017-06-04T03:29:00.296Z,948
2017-06-04T03:30:12.818Z,992
2017-06-04T03:31:25.352Z,1016
2017-06-04T03:32:37.876Z,1032
2017-06-04T03:33:49.801Z,1052
2017-06-04T03:35:01.744Z,1052
2017-06-04T03:36:13.971Z,1044
2017-06-04T03:37:25.914Z,1044
2017-06-04T03:38:38.152Z,1080
2017-06-04T03:39:50.698Z,1160
2017-06-04T03:41:03.220Z,1260
2017-06-04T03:42:15.748Z,1352
2017-06-04T03:43:27.652Z,1448
2017-06-04T03:44:40.507Z,1540
2017-06-04T03:45:52.736Z,1628
2017-06-04T03:47:05.273Z,1700
2017-06-04T03:48:17.808Z,1756
2017-06-04T03:49:30.071Z,1812
2017-06-04T03:50:42.611Z,1860
2017-06-04T03:51:55.165Z,1924
2017-06-04T03:53:07.687Z,1996
2017-06-04T03:54:20.207Z,2084
2017-06-04T03:55:32.432Z,2176
2017-06-04T03:56:45.003Z,2240
2017-06-04T03:57:57.248Z,2252
2017-06-04T03:59:09.769Z,2268
2017-06-04T04:00:22.316Z,2308
2017-06-04T04:01:34.554Z,2348
2017-06-04T04:02:46.503Z,2380
2017-06-04T04:03:59.046Z,2432
2017-06-04T04:05:11.263Z,2504
2017-06-04T04:06:23.812Z,2604
2017-06-04T04:07:36.047Z,2696
2017-06-04T04:08:48.586Z,2764
2017-06-04T04:10:01.132Z,2812
2017-06-04T04:11:13.702Z,2868
2017-06-04T04:12:26.250Z,2928
2017-06-04T04:13:38.784Z,2996
2017-06-04T04:14:51.313Z,3028
2017-06-04T04:16:03.808Z,2996
2017-06-04T04:17:16.613Z,2928
2017-06-04T04:18:29.146Z,2832
2017-06-04T04:19:41.717Z,2744
2017-06-04T04:20:53.949Z,2720
2017-06-04T04:22:06.209Z,2800
2017-06-04T04:23:18.463Z,2992
2017-06-04T04:24:31.008Z,3240
2017-06-04T04:25:42.968Z,3452
2017-06-04T04:26:55.500Z,3592
2017-06-04T04:28:08.022Z,3660
2017-06-04T04:29:20.533Z,3652
2017-06-04T04:30:32.762Z,3620
2017-06-04T04:31:44.980Z,3616
2017-06-04T04:32:56.921Z,3620
2017-06-04T04:34:09.168Z,3600
2017-06-04T04:35:21.728Z,3568
2017-06-04T04:36:34.295Z,3572
2017-06-04T04:37:46.537Z,3580
2017-06-04T04:38:59.012Z,3572
2017-06-04T04:40:11.552Z,3592
2017-06-04T04:41:23.466Z,3616
2017-06-04T04:42:36.010Z,3596
2017-06-04T04:43:48.544Z,3548
2017-06-04T04:45:01.064Z,3504
2017-06-04T04:46:13.611Z,3452
2017-06-04T04:47:25.532Z,3416
2017-06-04T04:48:38.065Z,3456
2017-06-04T04:49:50.623Z,3588
2017-06-04T04:51:03.161Z,3716
2017-06-04T04:52:15.389Z,3756
2017-06-04T04:53:27.652Z,3704
2017-06-04T04:54:39.881Z,3648
2017-06-04T04:55:52.427Z,3680
2017-06-04T04:57:04.986Z,3740
2017-06-04T04:58:17.518Z,3752
2017-06-04T04:59:29.461Z,3684
2017-06-04T05:00:41.683Z,3516
2017-06-04T05:01:54.199Z,3348
2017-06-04T05:03:06.426Z,3236
2017-06-04T05:04:18.645Z,3188
2017-06-04T05:05:31.145Z,3232
2017-06-04T05:06:43.670Z,3348
2017-06-04T05:07:56.236Z,3568
2017-06-04T05:09:08.754Z,3888
2017-06-04T05:10:21.275Z,4296
2017-06-04T05:11:33.825Z,4720
2017-06-04T05:12:46.347Z,5052
2017-06-04T05:13:58.887Z,5228
2017-06-04T05:15:11.409Z,5260
2017-06-04T05:16:23.658Z,5240
2017-06-04T05:17:35.892Z,5208
2017-06-04T05:18:48.098Z,5208
2017-06-04T05:20:00.616Z,5252
2017-06-04T05:21:12.856Z,5376
2017-06-04T05:22:25.684Z,5588
2017-06-04T05:23:38.204Z,5836
2017-06-04T05:24:50.751Z,6060
2017-06-04T05:26:02.997Z,6184
2017-06-04T05:27:15.500Z,6176
2017-06-04T05:28:28.064Z,6016
2017-06-04T05:29:40.605Z,5796
2017-06-04T05:30:53.130Z,5668
2017-06-04T05:32:05.651Z,5700
2017-06-04T05:33:17.871Z,5832
2017-06-04T05:34:30.393Z,5948
2017-06-04T05:35:42.934Z,6044
2017-06-04T05:36:55.455Z,6208
2017-06-04T05:38:08.007Z,6532
2017-06-04T05:39:19.627Z,6960
2017-06-04T05:40:31.848Z,7460
2017-06-04T05:41:44.386Z,7860
2017-06-04T05:42:56.642Z,8052
2017-06-04T05:44:09.453Z,7964
2017-06-04T05:45:22.001Z,7640
2017-06-04T05:46:34.229Z,7192
2017-06-04T05:47:46.483Z,6744
2017-06-04T05:48:59.011Z,6240
2017-06-04T05:50:11.560Z,5692
2017-06-04T05:51:24.110Z,5272
2017-06-04T05:52:36.632Z,5072
2017-06-04T05:53:48.833Z,5072
2017-06-04T05:55:01.090Z,5220
2017-06-04T05:56:13.611Z,5424
2017-06-04T05:57:26.190Z,5556
2017-06-04T05:58:38.419Z,5660
2017-06-04T05:59:50.960Z,5740
2017-06-04T06:01:03.459Z,5616
2017-06-04T06:02:15.976Z,5304
2017-06-04T06:03:28.199Z,4960
2017-06-04T06:04:40.772Z,4692
2017-06-04T06:05:53.008Z,4568
2017-06-04T06:07:05.578Z,4652
2017-06-04T06:08:18.106Z,4784
2017-06-04T06:09:30.024Z,4892
2017-06-04T06:10:42.544Z,4928
2017-06-04T06:11:55.071Z,4896
2017-06-04T06:13:07.336Z,4888
2017-06-04T06:14:19.533Z,4760
2017-06-04T06:15:32.096Z,4544
2017-06-04T06:16:44.024Z,4224
2017-06-04T06:17:56.274Z,3968
2017-06-04T06:19:08.812Z,3848
2017-06-04T06:20:21.366Z,3980
2017-06-04T06:21:33.586Z,4296
2017-06-04T06:22:45.832Z,4728
2017-06-04T06:23:58.379Z,5052
2017-06-04T06:25:10.947Z,5188
2017-06-04T06:26:23.470Z,5176
2017-06-04T06:27:36.025Z,5208
2017-06-04T06:28:48.562Z,5364
2017-06-04T06:30:01.083Z,5628
2017-06-04T06:31:13.578Z,5796
2017-06-04T06:32:25.825Z,5932
2017-06-04T06:33:38.367Z,6016
2017-06-04T06:34:50.884Z,6024
2017-06-04T06:36:03.387Z,5936
2017-06-04T06:37:15.605Z,5800
2017-06-04T06:38:28.430Z,5752
2017-06-04T06:39:40.989Z,5092
2017-06-04T06:40:53.217Z,5024
2017-06-04T06:42:05.720Z,5428
2017-06-04T06:43:17.956Z,5904
2017-06-04T06:44:30.488Z,6104
2017-06-04T06:45:43.053Z,6484
2017-06-04T06:46:55.572Z,6700
2017-06-04T06:48:07.798Z,6768
2017-06-04T06:49:20.044Z,6484
2017-06-04T06:50:32.589Z,5968
2017-06-04T06:51:45.139Z,6052
2017-06-04T06:52:57.397Z,6112
2017-06-04T06:54:09.640Z,5900
2017-06-04T06:55:22.172Z,6420
2017-06-04T06:56:34.715Z,5424
2017-06-04T06:57:47.261Z,5492
2017-06-04T06:58:59.482Z,5764
2017-06-04T07:00:11.952Z,5656
2017-06-04T07:01:24.191Z,5932
2017-06-04T07:02:36.131Z,6348
2017-06-04T07:03:48.668Z,5992
2017-06-04T07:05:01.210Z,6152
2017-06-04T07:06:13.160Z,7512
2017-06-04T07:07:25.706Z,7320
2017-06-04T07:08:37.948Z,7508
2017-06-04T07:09:50.475Z,8276
2017-06-04T07:11:03.001Z,8260
2017-06-04T07:12:15.557Z,7900
2017-06-04T07:13:27.788Z,7500
2017-06-04T07:14:40.287Z,7004
2017-06-04T07:15:52.816Z,7832
2017-06-04T07:17:05.345Z,7972
2017-06-04T07:18:17.584Z,7336
2017-06-04T07:19:30.104Z,8064
2017-06-04T07:20:42.636Z,7432
2017-06-04T07:21:54.585Z,6224
2017-06-04T07:23:06.776Z,5704
2017-06-04T07:24:19.288Z,8028
2017-06-04T07:25:31.844Z,7296
2017-06-04T07:26:44.091Z,6312
2017-06-04T07:27:56.636Z,6948
2017-06-04T07:29:09.164Z,7348
2017-06-04T07:30:21.694Z,6864
2017-06-04T07:31:33.925Z,6084
2017-06-04T07:32:46.470Z,5648
2017-06-04T07:33:58.992Z,4696
2017-06-04T07:35:11.509Z,4408
2017-06-04T07:36:24.025Z,4360
2017-06-04T07:37:36.567Z,4720
2017-06-04T07:38:49.114Z,3660
2017-06-04T07:40:01.648Z,4216
2017-06-04T07:41:13.293Z,4652
2017-06-04T07:42:25.534Z,4564
2017-06-04T07:43:38.109Z,5160
2017-06-04T07:44:50.654Z,6656
2017-06-04T07:46:03.201Z,8256
2017-06-04T07:47:15.743Z,8704
2017-06-04T07:48:28.267Z,8908
2017-06-04T07:49:40.786Z,6972
2017-06-04T07:50:53.027Z,6572
2017-06-04T07:52:05.551Z,8096
2017-06-04T07:53:17.493Z,9408
2017-06-04T07:54:30.022Z,11232
2017-06-04T07:55:42.581Z,12204
2017-06-04T07:56:54.817Z,11940
2017-06-04T07:58:07.048Z,11576
2017-06-04T07:59:19.598Z,9200
2017-06-04T08:00:31.823Z,10220
2017-06-04T08:01:44.064Z,11392
2017-06-04T08:02:56.607Z,11380
2017-06-04T08:04:08.817Z,11148
2017-06-04T08:05:21.057Z,11096
2017-06-04T08:06:33.283Z,11112
2017-06-04T08:07:45.820Z,11556
2017-06-04T08:08:58.344Z,10288
2017-06-04T08:10:10.590Z,9696
2017-06-04T08:11:23.128Z,7848
2017-06-04T08:12:35.403Z,7880
2017-06-04T08:13:47.954Z,8016
2017-06-04T08:15:00.474Z,9636
2017-06-04T08:16:12.924Z,12000
2017-06-04T08:17:25.470Z,14020
2017-06-04T08:18:38.008Z,14008
2017-06-04T08:19:50.574Z,15152
2017-06-04T08:21:02.510Z,15352
2017-06-04T08:22:15.024Z,14528
2017-06-04T08:23:27.249Z,13968
2017-06-04T08:24:39.792Z,13884
2017-06-04T08:25:52.008Z,13728
2017-06-04T08:27:04.254Z,14472
2017-06-04T08:28:16.783Z,15432
2017-06-04T08:29:29.324Z,16944
2017-06-04T08:30:41.538Z,18016
2017-06-04T08:31:54.067Z,18752
2017-06-04T08:33:05.993Z,18816
2017-06-04T08:34:18.529Z,19520
2017-06-04T08:35:30.755Z,19296
2017-06-04T08:36:43.278Z,17632
2017-06-04T08:37:55.825Z,17084
2017-06-04T08:39:08.060Z,16188
2017-06-04T08:40:20.594Z,16396
2017-06-04T08:41:32.809Z,17652
2017-06-04T08:42:45.305Z,18432
2017-06-04T08:43:57.546Z,18752
2017-06-04T08:45:09.776Z,17984
2017-06-04T08:46:22.390Z,18208
2017-06-04T08:47:34.313Z,16976
2017-06-04T08:48:46.552Z,16320
2017-06-04T08:49:59.081Z,13808
2017-06-04T08:51:11.627Z,11672
2017-06-04T08:52:23.848Z,10188
2017-06-04T08:53:36.364Z,8608
2017-06-04T08:54:48.619Z,7172
2017-06-04T08:56:01.138Z,5740
2017-06-04T08:57:13.685Z,5852
2017-06-04T08:58:26.252Z,6460
2017-06-04T08:59:38.498Z,7196
2017-06-04T09:00:51.022Z,7504
2017-06-04T09:02:03.585Z,8080
2017-06-04T09:03:16.113Z,6420
2017-06-04T09:04:28.673Z,6252
2017-06-04T09:05:41.202Z,6656
2017-06-04T09:06:53.698Z,6932
2017-06-04T09:08:05.920Z,6208
2017-06-04T09:09:18.169Z,6120
2017-06-04T09:10:30.711Z,7020
2017-06-04T09:11:43.207Z,4988
2017-06-04T09:12:55.448Z,5220
2017-06-04T09:14:07.714Z,3896
2017-06-04T09:15:20.265Z,4252
2017-06-04T09:16:32.242Z,2492
2017-06-04T09:17:44.480Z,2532
2017-06-04T09:18:57.014Z,5200
2017-06-04T09:20:09.260Z,6356
2017-06-04T09:21:21.804Z,5188
2017-06-04T09:22:34.054Z,4924
2017-06-04T09:23:46.590Z,5752
2017-06-04T09:24:58.812Z,6744
2017-06-04T09:26:10.738Z,7824
2017-06-04T09:27:22.933Z,5544
2017-06-04T09:28:35.475Z,4700
2017-06-04T09:29:47.695Z,4360
2017-06-04T09:31:00.246Z,5048
2017-06-04T09:32:12.490Z,5144
2017-06-04T09:33:24.708Z,7164
2017-06-04T09:34:37.234Z,8656
2017-06-04T09:35:49.476Z,6756
2017-06-04T09:37:01.997Z,7804
2017-06-04T09:38:14.263Z,11164
2017-06-04T09:39:26.782Z,11236
2017-06-04T09:40:39.309Z,13508
2017-06-04T09:41:51.830Z,12756
2017-06-04T09:43:04.375Z,10884
2017-06-04T09:44:16.597Z,7696
2017-06-04T09:45:29.117Z,6760
2017-06-04T09:46:41.659Z,6684
2017-06-04T09:47:53.891Z,5028
2017-06-04T09:49:06.434Z,5492
2017-06-04T09:50:18.677Z,6736
2017-06-04T09:51:30.896Z,10868
2017-06-04T09:52:43.147Z,11192
2017-06-04T09:53:55.639Z,13572
2017-06-04T09:55:07.881Z,12484
2017-06-04T09:56:20.406Z,11924
2017-06-04T09:57:32.948Z,9992
2017-06-04T09:58:45.473Z,7404
2017-06-04T09:59:57.711Z,6548
2017-06-04T10:01:09.960Z,8076
2017-06-04T10:02:22.528Z,6760
2017-06-04T10:03:35.084Z,6596
2017-06-04T10:04:47.631Z,7356
2017-06-04T10:05:59.919Z,6644
2017-06-04T10:07:12.448Z,6684
2017-06-04T10:08:24.690Z,6016
2017-06-04T10:09:37.261Z,5680
2017-06-04T10:10:49.815Z,4420
2017-06-04T10:12:02.077Z,3352
2017-06-04T10:13:14.299Z,6468
2017-06-04T10:14:26.815Z,8660
2017-06-04T10:15:39.344Z,11612
2017-06-04T10:16:51.886Z,10940
2017-06-04T10:18:03.837Z,10000
2017-06-04T10:19:16.356Z,11964
2017-06-04T10:20:28.591Z,9100
2017-06-04T10:21:41.170Z,9888
2017-06-04T10:22:53.709Z,8736
2017-06-04T10:24:06.246Z,8664
2017-06-04T10:25:18.825Z,10596
2017-06-04T10:26:31.032Z,8580
2017-06-04T10:27:43.300Z,12404
2017-06-04T10:28:55.842Z,10364
2017-06-04T10:30:08.384Z,12636
2017-06-04T10:31:20.919Z,13272
2017-06-04T10:32:32.877Z,11152
2017-06-04T10:33:45.082Z,9192
2017-06-04T10:34:57.625Z,9696
2017-06-04T10:36:10.149Z,8916
2017-06-04T10:37:22.339Z,8208
2017-06-04T10:38:34.880Z,10288
2017-06-04T10:39:47.433Z,10592
2017-06-04T10:40:59.359Z,12316
2017-06-04T10:42:11.601Z,9444
2017-06-04T10:43:23.825Z,6284
2017-06-04T10:44:36.364Z,6484
2017-06-04T10:45:48.919Z,8740
2017-06-04T10:47:01.459Z,7512
2017-06-04T10:48:13.983Z,8360
2017-06-04T10:49:26.232Z,8768
2017-06-04T10:50:38.202Z,9796
2017-06-04T10:51:50.697Z,9412
2017-06-04T10:53:03.243Z,13128
2017-06-04T10:54:15.163Z,16504
2017-06-04T10:55:27.706Z,14980
2017-06-04T10:56:39.956Z,11640
2017-06-04T10:57:52.502Z,11100
2017-06-04T10:59:05.294Z,13356
2017-06-04T11:00:17.819Z,12872
2017-06-04T11:01:30.039Z,11052
2017-06-04T11:02:42.584Z,13708
2017-06-04T11:03:55.124Z,9720
2017-06-04T11:05:07.073Z,9432
2017-06-04T11:06:19.569Z,12652
2017-06-04T11:07:31.789Z,10072
2017-06-04T11:08:44.328Z,16332
2017-06-04T11:09:56.848Z,18656
2017-06-04T11:11:09.394Z,21824
2017-06-04T11:12:21.927Z,18816
2017-06-04T11:13:34.511Z,16624
2017-06-04T11:14:47.033Z,22528
2017-06-04T11:15:59.262Z,21600
2017-06-04T11:17:11.788Z,22176
2017-06-04T11:18:24.328Z,20800
2017-06-04T11:19:36.856Z,19040
2017-06-04T11:20:49.620Z,19488
2017-06-04T11:22:02.187Z,15352
2017-06-04T11:23:14.428Z,16748
2017-06-04T11:24:26.958Z,15756
2017-06-04T11:25:39.188Z,11620
2017-06-04T11:26:51.753Z,9212
2017-06-04T11:28:04.299Z,10208
2017-06-04T11:29:16.538Z,13052
2017-06-04T11:30:28.808Z,11796
2017-06-04T11:31:41.379Z,13320
2017-06-04T11:32:53.597Z,7684
2017-06-04T11:34:05.254Z,8192
2017-06-04T11:35:17.797Z,10240
2017-06-04T11:36:30.341Z,13268
2017-06-04T11:37:42.563Z,7460
2017-06-04T11:38:55.109Z,3340
2017-06-04T11:40:07.320Z,3864
2017-06-04T11:41:19.252Z,3776
2017-06-04T11:42:31.774Z,7096
2017-06-04T11:43:44.044Z,10200
2017-06-04T11:44:56.593Z,12804
2017-06-04T11:46:09.136Z,13512
2017-06-04T11:47:21.680Z,10096
2017-06-04T11:48:33.909Z,11808
2017-06-04T11:49:46.171Z,11368
2017-06-04T11:50:58.714Z,13572
2017-06-04T11:52:10.956Z,16096
2017-06-04T11:53:23.734Z,13120
2017-06-04T11:54:35.973Z,18688
2017-06-04T11:55:48.502Z,20544
2017-06-04T11:57:01.044Z,20640
2017-06-04T11:58:13.243Z,22464
2017-06-04T11:59:25.764Z,25184
2017-06-04T12:00:38.294Z,23744
2017-06-04T12:01:50.535Z,14492
2017-06-04T12:03:03.073Z,17360
2017-06-04T12:04:15.823Z,14500
2017-06-04T12:05:28.344Z,14640
2017-06-04T12:06:40.868Z,16860
2017-06-04T12:07:53.415Z,14952
2017-06-04T12:09:05.931Z,19264
2017-06-04T12:10:18.484Z,17792
2017-06-04T12:11:31.023Z,18400
2017-06-04T12:12:43.544Z,18464
2017-06-04T12:13:56.069Z,14016
2017-06-04T12:15:08.286Z,15196
2017-06-04T12:16:20.809Z,12688
2017-06-04T12:17:33.328Z,14312
2017-06-04T12:18:45.573Z,15928
2017-06-04T12:19:58.107Z,15344
2017-06-04T12:21:10.044Z,14936
2017-06-04T12:22:22.592Z,13836
2017-06-04T12:23:35.108Z,16508
2017-06-04T12:24:47.632Z,17456
2017-06-04T12:26:00.177Z,17332
2017-06-04T12:27:12.719Z,20416
2017-06-04T12:28:25.242Z,16784
2017-06-04T12:29:37.782Z,16228
2017-06-04T12:30:50.333Z,14936
2017-06-04T12:32:02.553Z,18528
2017-06-04T12:33:15.084Z,18016
2017-06-04T12:34:27.639Z,20672
2017-06-04T12:35:40.169Z,23904
2017-06-04T12:36:52.712Z,25632
2017-06-04T12:38:05.276Z,29728
2017-06-04T12:39:17.215Z,25952
2017-06-04T12:40:29.750Z,29312
2017-06-04T12:41:41.946Z,30752
2017-06-04T12:42:53.888Z,30496
2017-06-04T12:44:06.117Z,36448
2017-06-04T12:45:18.067Z,34496
2017-06-04T12:46:30.608Z,31840
2017-06-04T12:47:43.146Z,35840
2017-06-04T12:48:55.389Z,36960
2017-06-04T12:50:07.976Z,34208
2017-06-04T12:51:19.913Z,35424
2017-06-04T12:52:32.164Z,35744
2017-06-04T12:53:44.698Z,29760
2017-06-04T12:54:57.221Z,23392
2017-06-04T12:56:09.476Z,13972
2017-06-04T12:57:21.718Z,12388
2017-06-04T12:58:33.945Z,21728
2017-06-04T12:59:46.452Z,15528
2017-06-04T13:00:58.956Z,10840
2017-06-04T13:02:11.455Z,15296
2017-06-04T13:03:23.701Z,17440
2017-06-04T13:04:35.935Z,13696
2017-06-04T13:05:48.142Z,15944
2017-06-04T13:07:00.677Z,18496
2017-06-04T13:08:13.235Z,17376
2017-06-04T13:09:25.797Z,16720
2017-06-04T13:10:38.022Z,13344
2017-06-04T13:11:49.947Z,11276
2017-06-04T13:13:02.193Z,11532
2017-06-04T13:14:14.763Z,11304
2017-06-04T13:15:27.282Z,9616
2017-06-04T13:16:39.828Z,7984
2017-06-04T13:17:52.078Z,5552
2017-06-04T13:19:04.605Z,3948
2017-06-04T13:20:17.140Z,2968
2017-06-04T13:21:29.689Z,3032
2017-06-04T13:22:41.935Z,4108
2017-06-04T13:23:53.853Z,7240
2017-06-04T13:25:06.365Z,7412
2017-06-04T13:26:18.921Z,7176
2017-06-04T13:27:30.868Z,8516
2017-06-04T13:28:43.414Z,8168
2017-06-04T13:29:55.957Z,8964
2017-06-04T13:31:08.513Z,15100
2017-06-04T13:32:21.052Z,20736
2017-06-04T13:33:33.595Z,22464
2017-06-04T13:34:45.818Z,26304
2017-06-04T13:35:58.066Z,36160
2017-06-04T13:37:10.605Z,32736
2017-06-04T13:38:22.850Z,17696
2017-06-04T13:39:35.403Z,27136
2017-06-04T13:40:47.662Z,22016
2017-06-04T13:42:00.444Z,24320
2017-06-04T13:43:12.361Z,47328
2017-06-04T13:44:24.576Z,28384
2017-06-04T13:45:37.131Z,28096
2017-06-04T13:46:49.391Z,39104
2017-06-04T13:48:00.742Z,60160
2017-06-04T13:49:13.298Z,80896
2017-06-04T13:50:25.541Z,76896
2017-06-04T13:51:37.801Z,30176
2017-06-04T13:52:50.333Z,24896
2017-06-04T13:54:02.551Z,19104
2017-06-04T13:55:14.772Z,22816
2017-06-04T13:56:27.293Z,23328
2017-06-04T13:57:39.816Z,19904
2017-06-04T13:58:52.359Z,26528
2017-06-04T14:00:04.898Z,25120
2017-06-04T14:01:17.452Z,29184
2017-06-04T14:02:29.694Z,28800
2017-06-04T14:03:42.193Z,33024
2017-06-04T14:04:54.439Z,35840
2017-06-04T14:06:06.643Z,38080
2017-06-04T14:07:18.881Z,38144
2017-06-04T14:08:31.119Z,33248
2017-06-04T14:09:43.354Z,29472
2017-06-04T14:10:55.843Z,30208
2017-06-04T14:12:08.071Z,29440
2017-06-04T14:13:20.627Z,24128
2017-06-04T14:14:32.559Z,24608
2017-06-04T14:15:45.120Z,19264
2017-06-04T14:16:57.673Z,16796
2017-06-04T14:18:10.219Z,26432
2017-06-04T14:19:22.740Z,25888
2017-06-04T14:20:34.912Z,41664
2017-06-04T14:21:46.840Z,55200
2017-06-04T14:22:59.406Z,25984
2017-06-04T14:24:11.969Z,31808
2017-06-04T14:25:23.922Z,24992
2017-06-04T14:26:36.141Z,20096
2017-06-04T14:27:48.362Z,18048
2017-06-04T14:29:00.583Z,19392
2017-06-04T14:30:13.121Z,20640
2017-06-04T14:31:25.671Z,16812
2017-06-04T14:32:37.590Z,13892
2017-06-04T14:33:50.136Z,10596
2017-06-04T14:35:02.665Z,14248
2017-06-04T14:36:15.200Z,14428
2017-06-04T14:37:27.754Z,13656
2017-06-04T14:38:39.992Z,14480
2017-06-04T14:39:52.220Z,17824
2017-06-04T14:41:04.770Z,19264
2017-06-04T14:42:17.009Z,21888
2017-06-04T14:43:29.539Z,26528
2017-06-04T14:44:42.100Z,33696
2017-06-04T14:45:54.626Z,32192
2017-06-04T14:47:07.402Z,31264
2017-06-04T14:48:19.923Z,29856
2017-06-04T14:49:32.441Z,30368
2017-06-04T14:50:44.384Z,31552
2017-06-04T14:51:56.609Z,32032
2017-06-04T14:53:09.180Z,32672
2017-06-04T14:54:21.689Z,29280
2017-06-04T14:55:34.196Z,24896
2017-06-04T14:56:46.764Z,22080
2017-06-04T14:57:59.309Z,19360
2017-06-04T14:59:11.858Z,21600
2017-06-04T15:00:24.426Z,29984
2017-06-04T15:01:36.947Z,19872
2017-06-04T15:02:48.873Z,25472
2017-06-04T15:04:01.418Z,18400
2017-06-04T15:05:13.970Z,17664
2017-06-04T15:06:26.222Z,12876
2017-06-04T15:07:38.755Z,9112
2017-06-04T15:08:51.300Z,7176
2017-06-04T15:10:03.526Z,7428
2017-06-04T15:11:15.469Z,5608
2017-06-04T15:12:27.684Z,6248
2017-06-04T15:13:39.610Z,7916
2017-06-04T15:14:51.836Z,8744
2017-06-04T15:16:04.373Z,10064
2017-06-04T15:17:16.586Z,10676
2017-06-04T15:18:29.118Z,10636
2017-06-04T15:19:41.639Z,10784
2017-06-04T15:20:54.182Z,11140
2017-06-04T15:22:06.108Z,12276
2017-06-04T15:23:18.651Z,13964
2017-06-04T15:24:31.215Z,16256
2017-06-04T15:25:43.758Z,20448
2017-06-04T15:26:55.679Z,22144
2017-06-04T15:28:08.211Z,19328
2017-06-04T15:29:20.753Z,17728
2017-06-04T15:30:33.277Z,16868
2017-06-04T15:31:45.819Z,15812
2017-06-04T15:32:58.068Z,14952
2017-06-04T15:34:10.333Z,12288
2017-06-04T15:35:22.852Z,12544
2017-06-04T15:36:34.484Z,12104
2017-06-04T15:37:47.046Z,13372
2017-06-04T15:38:59.273Z,14456
2017-06-04T15:40:11.839Z,14264
2017-06-04T15:41:24.663Z,11900
2017-06-04T15:42:36.884Z,10868
2017-06-04T15:43:49.133Z,10128
2017-06-04T15:45:01.377Z,9720
2017-06-04T15:46:13.588Z,8208
2017-06-04T15:47:26.117Z,8180
2017-06-04T15:48:38.063Z,8640
2017-06-04T15:49:50.583Z,8656
2017-06-04T15:51:02.809Z,8016
2017-06-04T15:52:15.350Z,5848
2017-06-04T15:53:27.589Z,7348
2017-06-04T15:54:39.845Z,12064
2017-06-04T15:55:51.766Z,12652
2017-06-04T15:57:04.309Z,12676
2017-06-04T15:58:16.872Z,15980
2017-06-04T15:59:29.101Z,18144
2017-06-04T16:00:41.300Z,16064
2017-06-04T16:01:53.275Z,16000
2017-06-04T16:03:05.543Z,17504
2017-06-04T16:04:18.063Z,21760
2017-06-04T16:05:30.309Z,19712
2017-06-04T16:06:42.534Z,14616
2017-06-04T16:07:55.075Z,14628
2017-06-04T16:09:07.639Z,15352